Latest Weather Observations for Williamson

IDQ60801

Issued at 7:35 am EST Wednesday 26 November 2014 (issued every 30 minutes, with the page automatically refreshed every 10 minutes)

About weather observations | Map of weather stations | Latest weather observations for QLD | Other Formats
Station Details ID: 033195 Name: WILLIAMSON Lat: -22.47 Lon: 150.18 Height: 27.6 m
Data from the previous 72 hours. | See also: Recent months at Williamson
Date/Time
EST
Temp
°C
App
Temp
°C
Dew
Point
Rel
Hum
%
Delta-T
°C
Wind Press
QNH
hPa
Press
MSL
hPa
Rain
since 9 am
mm
Dir
 
Spd
km/h
Gust
km/h
Spd
kts
Gust
kts
26/07:30am 27.6 29.2 20.7 66 4.6 E 13 20 7 11 1015.1 1014.9 0.0
26/07:00am 26.7 29.2 21.7 74 3.3 ENE 11 22 6 12 1015.0 1014.8 0.0
26/06:30am 25.7 30.3 22.4 82 2.2 E 2 9 1 5 1014.7 1014.5 0.0
26/06:00am 24.0 27.7 22.3 90 1.1 SSW 6 7 3 4 1014.6 1014.4 0.0
26/05:30am 23.1 26.2 21.5 91 1.1 S 7 9 4 5 1014.2 1014.0 0.0
26/05:00am 23.3 26.8 21.9 92 0.9 ESE 6 7 3 4 1013.5 1013.3 0.0
26/04:30am 23.2 26.6 21.6 91 1.1 ENE 6 7 3 4 1013.2 1013.0 0.0
26/04:00am 23.3 27.8 21.6 90 1.1 CALM 0 6 0 3 1012.8 1012.6 0.0
26/03:30am 23.9 28.4 21.6 87 1.5 CALM 0 0 0 0 1013.0 1012.8 0.0
26/03:00am 24.3 28.0 22.2 88 1.4 ENE 6 7 3 4 1012.9 1012.7 0.0
26/02:30am 24.6 28.7 22.3 87 1.5 E 4 7 2 4 1012.8 1012.6 0.0
26/02:00am 24.8 29.7 22.3 86 1.7 CALM 0 6 0 3 1012.9 1012.7 0.0
26/01:30am 25.0 28.7 22.3 85 1.8 NE 6 9 3 5 1013.0 1012.8 0.0
26/01:00am 25.3 29.2 22.6 85 1.8 ENE 6 11 3 6 1013.3 1013.1 0.0
26/12:30am 25.3 28.5 22.4 84 1.9 NE 9 15 5 8 1013.4 1013.2 0.0
26/12:00am 25.3 29.1 22.8 86 1.7 ENE 7 13 4 7 1013.8 1013.6 0.0
 
Date/Time
EST
Temp
°C
App
Temp
°C
Dew
Point
Rel
Hum
%
Delta-T
°C
Wind Press
QNH
hPa
Press
MSL
hPa
Rain
since 9 am
mm
Dir
 
Spd
km/h
Gust
km/h
Spd
kts
Gust
kts
25/11:30pm 25.2 28.5 22.5 85 1.8 NE 9 13 5 7 1014.2 1014.0 0.0
25/11:00pm 25.4 28.3 22.5 84 2.0 NE 11 20 6 11 1014.5 1014.3 0.0
25/10:30pm 25.5 28.8 22.6 84 2.0 NE 9 19 5 10 1014.8 1014.6 0.0
25/10:00pm 25.5 29.2 22.6 84 2.0 ENE 7 11 4 6 1015.0 1014.8 0.0
25/09:30pm 25.5 29.1 22.4 83 2.1 ENE 7 11 4 6 1014.8 1014.6 0.0
25/09:00pm 25.6 29.2 22.3 82 2.2 E 7 13 4 7 1014.5 1014.3 0.0
25/08:30pm 25.6 28.8 22.3 82 2.2 NE 9 17 5 9 1014.1 1013.9 0.0
25/08:00pm 25.7 28.4 22.2 81 2.3 NE 11 20 6 11 1013.7 1013.5 0.0
25/07:30pm 25.8 28.8 21.9 79 2.6 ENE 9 17 5 9 1013.5 1013.3 0.0
25/07:00pm 26.1 28.0 21.3 75 3.2 NE 13 24 7 13 1013.2 1013.0 0.0
25/06:30pm 26.7 28.4 21.7 74 3.3 NE 15 32 8 17 1012.9 1012.7 0.0
25/06:00pm 27.2 28.7 21.2 69 4.0 NNE 15 32 8 17 1012.7 1012.5 0.0
25/05:30pm 28.4 30.2 21.2 65 4.8 NE 13 24 7 13 1012.1 1011.9 0.0
25/05:00pm 29.3 29.5 20.2 58 6.0 ENE 19 30 10 16 1011.8 1011.6 0.0
25/04:30pm 30.2 31.2 21.0 58 6.1 NNE 17 28 9 15 1011.5 1011.3 0.0
25/04:00pm 31.0 31.3 20.3 53 7.1 NE 19 30 10 16 1011.6 1011.4 0.0
25/03:30pm 31.5 31.8 20.4 51 7.4 N 19 30 10 16 1011.5 1011.3 0.0
25/03:00pm 31.0 31.6 19.4 50 7.6 NNE 15 30 8 16 1011.6 1011.4 0.0
25/02:30pm 32.4 32.6 18.6 44 9.0 ENE 15 28 8 15 1011.8 1011.6 0.0
25/02:00pm 31.9 32.2 18.8 45 8.5 NNE 15 24 8 13 1012.1 1011.9 0.0
25/01:30pm 31.7 31.2 17.9 43 8.9 NE 17 28 9 15 1012.3 1012.1 0.0
25/01:00pm 32.3 31.5 18.1 42 9.2 ENE 19 32 10 17 1012.7 1012.5 0.0
25/12:30pm 32.5 32.0 17.9 41 9.4 ENE 17 30 9 16 1013.1 1012.9 0.0
25/12:00pm 31.2 31.3 17.5 44 8.7 NE 13 28 7 15 1013.5 1013.3 0.0
25/11:30am 31.3 30.8 16.8 41 9.2 NE 15 30 8 16 1013.8 1013.6 0.0
25/11:00am 31.3 31.0 16.5 41 9.3 ENE 13 19 7 10 1014.2 1014.0 0.0
25/10:30am 30.9 30.0 16.9 43 8.8 ENE 17 26 9 14 1014.5 1014.3 0.0
25/10:00am 30.5 30.4 16.1 41 9.0 ENE 11 26 6 14 1014.8 1014.6 0.0
25/09:30am 29.6 29.2 17.1 47 7.9 ENE 15 26 8 14 1015.0 1014.8 0.0
25/09:00am 30.0 30.5 17.5 47 7.9 E 11 20 6 11 1015.1 1014.9 0.0
25/08:30am 28.2 28.5 18.0 54 6.5 E 13 20 7 11 1015.4 1015.2 0.0
25/08:00am 28.1 28.9 18.2 55 6.3 E 11 19 6 10 1015.4 1015.2 0.0
25/07:30am 27.8 30.1 19.8 61 5.2 ESE 7 15 4 8 1015.4 1015.2 0.0
25/07:00am 26.2 28.8 20.1 69 4.0 S 6 11 3 6 1015.1 1014.9 0.0
25/06:30am 23.8 27.4 19.7 78 2.6 CALM 0 0 0 0 1014.8 1014.6 0.0
25/06:00am 21.7 25.1 19.4 87 1.5 CALM 0 0 0 0 1014.5 1014.3 0.0
25/05:30am 20.1 23.3 18.8 92 0.8 CALM 0 0 0 0 1014.3 1014.1 0.0
25/05:00am 20.2 23.3 18.7 91 0.9 CALM 0 0 0 0 1014.0 1013.8 0.0
25/04:30am 20.9 23.1 19.2 90 1.1 SE 6 7 3 4 1013.9 1013.7 0.0
25/04:00am 21.2 24.6 19.3 89 1.2 CALM 0 0 0 0 1013.8 1013.6 0.0
25/03:30am 20.9 24.1 18.8 88 1.3 CALM 0 0 0 0 1013.6 1013.4 0.0
25/03:00am 21.3 23.9 19.2 88 1.3 SSW 4 7 2 4 1013.6 1013.4 0.0
25/02:30am 21.8 25.0 18.8 83 1.9 CALM 0 4 0 2 1013.4 1013.2 0.0
25/02:00am 22.7 25.6 20.6 88 1.4 E 6 7 3 4 1013.4 1013.2 0.0
25/01:30am 21.8 24.5 19.5 87 1.5 ENE 4 7 2 4 1013.7 1013.5 0.0
25/01:00am 21.9 25.4 19.5 86 1.5 CALM 0 0 0 0 1014.0 1013.8 0.0
25/12:30am 22.2 25.6 19.4 84 1.8 CALM 0 0 0 0 1014.4 1014.2 0.0
25/12:00am 22.2 25.6 19.4 84 1.8 CALM 0 4 0 2 1014.7 1014.5 0.0
 
Date/Time
EST
Temp
°C
App
Temp
°C
Dew
Point
Rel
Hum
%
Delta-T
°C
Wind Press
QNH
hPa
Press
MSL
hPa
Rain
since 9 am
mm
Dir
 
Spd
km/h
Gust
km/h
Spd
kts
Gust
kts
24/11:30pm 22.7 25.9 19.7 83 1.9 NE 2 6 1 3 1015.0 1014.8 0.0
24/11:00pm 23.7 27.3 19.8 79 2.5 CALM 0 0 0 0 1015.4 1015.2 0.0
24/10:30pm 24.2 26.9 20.3 79 2.5 ENE 6 9 3 5 1015.5 1015.3 0.0
24/10:00pm 24.4 26.9 20.3 78 2.7 NE 7 13 4 7 1015.5 1015.3 0.0
24/09:30pm 24.6 27.0 20.1 76 2.9 NNE 7 15 4 8 1015.3 1015.1 0.0
24/09:00pm 24.7 27.8 20.2 76 2.9 NNE 4 9 2 5 1015.0 1014.8 0.0
24/08:30pm 25.0 27.0 20.0 74 3.2 NE 9 15 5 8 1014.7 1014.5 0.0
24/08:00pm 25.2 27.4 20.5 75 3.1 NE 9 15 5 8 1014.4 1014.2 0.0
24/07:30pm 25.4 27.5 20.2 73 3.4 NE 9 19 5 10 1014.0 1013.8 0.0
24/07:00pm 25.7 27.5 20.3 72 3.5 NE 11 17 6 9 1013.9 1013.7 0.0
24/06:30pm 26.0 27.2 19.9 69 4.0 NE 13 17 7 9 1013.8 1013.6 0.0
24/06:00pm 26.5 27.3 19.9 67 4.3 NE 15 24 8 13 1013.2 1013.0 0.0
24/05:30pm 27.4 27.0 18.1 57 5.9 NE 17 28 9 15 1012.9 1012.7 0.0
24/05:00pm 28.0 27.6 19.0 58 5.8 NE 19 32 10 17 1012.6 1012.4 0.0
24/04:30pm 28.9 28.3 18.4 53 6.7 NNE 19 32 10 17 1012.6 1012.4 0.0
24/04:00pm 27.8 27.2 18.8 58 5.8 NNE 20 32 11 17 1012.7 1012.5 0.0
24/03:30pm 28.8 28.2 18.9 55 6.4 NE 20 35 11 19 1012.8 1012.6 0.0
24/03:00pm 29.4 28.0 17.9 50 7.3 NE 22 33 12 18 1012.9 1012.7 0.0
24/02:30pm 29.8 29.1 18.3 50 7.4 NNE 19 33 10 18 1013.0 1012.8 0.0
24/02:00pm 29.9 29.0 17.7 48 7.8 NNE 19 30 10 16 1013.5 1013.3 0.0
24/01:30pm 30.9 30.1 17.9 45 8.3 NNE 19 35 10 19 1013.8 1013.6 0.0
24/01:00pm 30.8 30.5 18.2 47 8.1 NE 17 28 9 15 1014.2 1014.0 0.0
24/12:30pm 30.4 29.6 18.5 49 7.7 NNE 20 30 11 16 1014.5 1014.3 0.0
24/12:00pm 29.8 28.8 17.9 48 7.6 NE 20 32 11 17 1014.9 1014.7 0.0
24/11:30am 29.9 29.2 18.3 49 7.5 NNE 19 32 10 17 1015.2 1015.0 0.0
24/11:00am 30.1 29.9 18.5 49 7.5 ENE 17 30 9 16 1015.6 1015.4 0.0
24/10:30am 31.1 31.2 19.1 48 7.8 NE 17 28 9 15 1015.9 1015.7 0.0
24/10:00am 29.4 29.6 19.4 55 6.5 NE 17 32 9 17 1016.2 1016.0 0.0
24/09:30am 27.7 27.8 19.2 60 5.5 NE 17 24 9 13 1016.6 1016.4 0.0
24/09:00am 28.2 29.2 19.4 59 5.7 NNE 13 20 7 11 1016.5 1016.3 0.0
24/08:30am 26.8 28.1 20.2 67 4.3 NE 13 19 7 10 1016.6 1016.4 0.0
24/08:00am 27.3 28.7 20.4 66 4.5 NE 13 20 7 11 1016.5 1016.3 0.0
24/07:30am 27.0 28.4 20.3 66 4.4 NE 13 19 7 10 1016.4 1016.2 0.0
24/07:00am 26.2 28.2 20.7 71 3.6 NE 11 19 6 10 1016.3 1016.1 0.0
24/06:30am 24.6 28.8 20.9 80 2.4 CALM 0 0 0 0 1016.2 1016.0 0.0
24/06:00am 21.1 24.5 19.4 90 1.1 CALM 0 6 0 3 1015.9 1015.7 0.0
24/05:30am 20.3 22.3 18.8 91 0.9 S 6 7 3 4 1015.7 1015.5 0.0
24/05:00am 20.3 23.4 18.6 90 1.1 CALM 0 0 0 0 1015.4 1015.2 0.0
24/04:30am 20.7 22.8 19.0 90 1.1 S 6 7 3 4 1015.1 1014.9 0.0
24/04:00am 20.9 23.0 19.0 89 1.2 S 6 9 3 5 1015.0 1014.8 0.0
24/03:30am 20.8 22.6 18.7 88 1.3 S 7 11 4 6 1014.8 1014.6 0.0
24/03:00am 20.8 22.9 18.9 89 1.2 S 6 11 3 6 1014.8 1014.6 0.0
24/02:30am 21.3 23.4 19.4 89 1.2 SSE 7 9 4 5 1014.9 1014.7 0.0
24/02:00am 21.2 23.6 18.8 86 1.5 SSE 4 9 2 5 1015.0 1014.8 0.0
24/01:30am 21.4 24.6 18.8 85 1.6 CALM 0 0 0 0 1015.1 1014.9 0.0
24/01:00am 21.8 25.1 19.0 84 1.8 CALM 0 0 0 0 1015.4 1015.2 0.0
24/12:30am 21.9 25.2 19.1 84 1.8 CALM 0 0 0 0 1015.7 1015.5 0.0
24/12:00am 22.2 25.6 19.4 84 1.8 CALM 0 0 0 0 1016.0 1015.8 0.0
 
Date/Time
EST
Temp
°C
App
Temp
°C
Dew
Point
Rel
Hum
%
Delta-T
°C
Wind Press
QNH
hPa
Press
MSL
hPa
Rain
since 9 am
mm
Dir
 
Spd
km/h
Gust
km/h
Spd
kts
Gust
kts
23/11:30pm 22.3 25.7 19.3 83 1.9 CALM 0 0 0 0 1016.1 1015.9 0.0
23/11:00pm 22.7 25.4 19.5 82 2.0 ESE 4 7 2 4 1016.2 1016.0 0.0
23/10:30pm 22.5 24.5 19.1 81 2.2 E 7 9 4 5 1016.4 1016.2 0.0
23/10:00pm 23.0 25.2 19.2 79 2.4 SE 6 9 3 5 1016.5 1016.3 0.0
23/09:30pm 23.9 26.4 19.8 78 2.6 E 6 9 3 5 1016.2 1016.0 0.0
23/09:00pm 24.1 26.6 19.8 77 2.8 ENE 6 9 3 5 1015.8 1015.6 0.0
23/08:30pm 24.3 26.7 19.6 75 3.0 NE 6 9 3 5 1015.7 1015.5 0.0
23/08:00pm 24.9 27.1 19.7 73 3.4 NE 7 13 4 7 1015.5 1015.3 0.0
23/07:30pm 25.2 27.0 19.6 71 3.6 NE 9 13 5 7 1015.2 1015.0 0.0
23/07:00pm 25.5 27.3 19.6 70 3.8 NE 9 15 5 8 1014.9 1014.7 0.0
23/06:30pm 26.1 28.0 19.7 68 4.1 NE 9 17 5 9 1014.6 1014.4 0.0
23/06:00pm 26.9 27.1 19.3 63 4.9 NE 17 28 9 15 1014.1 1013.9 0.0
23/05:30pm 27.7 27.7 19.0 59 5.6 NE 17 28 9 15 1013.8 1013.6 0.0
23/05:00pm 28.4 28.1 19.1 57 6.0 NE 19 32 10 17 1013.7 1013.5 0.0
23/04:30pm 28.6 28.2 19.0 56 6.2 NNE 19 33 10 18 1013.7 1013.5 0.0
23/04:00pm 29.3 29.1 19.3 55 6.5 NNE 19 30 10 16 1013.6 1013.4 0.0
23/03:30pm 29.4 29.7 19.7 56 6.3 NNE 17 30 9 16 1013.8 1013.6 0.0
23/03:00pm 29.6 29.5 19.6 55 6.5 NE 19 33 10 18 1014.0 1013.8 0.0
23/02:30pm 30.0 30.5 20.0 55 6.6 NE 17 28 9 15 1014.2 1014.0 0.0
23/02:00pm 30.7 30.8 20.0 52 7.1 NE 19 30 10 16 1014.5 1014.3 0.0
23/01:30pm 30.9 31.5 20.2 53 7.1 NNE 17 28 9 15 1014.8 1014.6 0.0
23/01:00pm 29.5 29.6 19.2 54 6.7 NNE 17 30 9 16 1015.1 1014.9 0.0
23/12:30pm 29.6 29.0 18.4 51 7.2 NNE 19 28 10 15 1015.5 1015.3 0.0
23/12:00pm 30.3 30.1 18.4 49 7.7 NNE 17 28 9 15 1015.8 1015.6 0.0
23/11:30am 31.1 31.7 19.4 49 7.7 NNE 15 26 8 14 1016.1 1015.9 0.0
23/11:00am 30.3 30.8 19.3 51 7.2 NNE 15 30 8 16 1016.6 1016.4 0.0
23/10:30am 29.9 29.8 18.7 51 7.2 NE 17 26 9 14 1016.8 1016.6 0.0
23/10:00am 29.7 29.5 17.5 48 7.7 NNE 15 22 8 12 1016.9 1016.7 0.0
23/09:30am 30.3 31.1 19.0 50 7.3 ENE 13 22 7 12 1017.0 1016.8 0.0
23/09:00am 29.1 29.8 18.8 53 6.6 N 13 22 7 12 1016.9 1016.7 0.0
23/08:30am 28.5 29.7 19.1 56 6.1 N 11 19 6 10 1017.0 1016.8 0.0
23/08:00am 28.1 29.4 20.1 62 5.2 NE 13 19 7 10 1016.9 1016.7 0.0

Other Formats:

Comma delimited format used in spreadsheet applications
http://www.bom.gov.au/fwo/IDQ60801/IDQ60801.95370.axf

JavaScript Object Notation format (JSON) in row-major order
http://www.bom.gov.au/fwo/IDQ60801/IDQ60801.95370.json